createdAt,value
2023-07-18T00:00:26.558Z,11.40
2023-07-18T00:03:16.453Z,11.40
2023-07-18T00:05:44.925Z,10.60
2023-07-18T00:08:12.700Z,11.40
2023-07-18T00:10:40.875Z,10.90
2023-07-18T00:13:10.191Z,11.30
2023-07-18T00:15:38.338Z,11.20
2023-07-18T00:18:08.004Z,10.90
2023-07-18T00:20:35.874Z,11.90
2023-07-18T00:23:04.749Z,11.60
2023-07-18T00:25:34.785Z,11.20
2023-07-18T00:28:04.018Z,11.90
2023-07-18T00:30:31.715Z,11.90
2023-07-18T00:33:01.819Z,11.90
2023-07-18T00:35:29.890Z,11.90
2023-07-18T00:38:01.185Z,12.40
2023-07-18T00:40:29.584Z,11.20
2023-07-18T00:42:58.086Z,12.30
2023-07-18T00:45:27.593Z,11.30
2023-07-18T00:47:56.613Z,11.40
2023-07-18T00:50:24.647Z,12.50
2023-07-18T00:52:55.778Z,12.40
2023-07-18T00:55:24.328Z,11.70
2023-07-18T00:57:59.133Z,12.20
2023-07-18T01:00:28.791Z,12.20
2023-07-18T01:02:56.980Z,11.10
2023-07-18T01:05:25.488Z,11.80
2023-07-18T01:07:54.248Z,11.60
2023-07-18T01:10:28.631Z,11.90
2023-07-18T01:13:00.019Z,11.90
2023-07-18T01:15:34.049Z,11.70
2023-07-18T01:18:10.158Z,11.70
2023-07-18T01:20:41.465Z,11.70
2023-07-18T01:23:09.306Z,10.80
2023-07-18T01:25:38.405Z,11.80
2023-07-18T01:28:07.790Z,12.10
2023-07-18T01:30:35.906Z,12.20
2023-07-18T01:33:05.393Z,12.00
2023-07-18T01:35:33.819Z,12.10
2023-07-18T01:38:01.702Z,11.50
2023-07-18T01:40:32.283Z,10.10
2023-07-18T01:43:01.796Z,11.30
2023-07-18T01:45:29.880Z,10.70
2023-07-18T01:47:58.180Z,11.00
2023-07-18T01:50:26.721Z,11.50
2023-07-18T01:52:54.666Z,11.30
2023-07-18T01:55:23.856Z,11.10
2023-07-18T01:57:52.087Z,11.20
2023-07-18T02:00:21.412Z,10.90
2023-07-18T02:02:54.230Z,12.20
2023-07-18T02:05:25.694Z,12.40
2023-07-18T02:07:53.811Z,12.30
2023-07-18T02:10:22.526Z,11.60
2023-07-18T02:12:53.372Z,10.60
2023-07-18T02:15:22.861Z,11.60
2023-07-18T02:17:52.374Z,11.60
2023-07-18T02:20:20.784Z,11.50
2023-07-18T02:22:48.471Z,11.90
2023-07-18T02:25:18.087Z,11.60
2023-07-18T02:27:49.391Z,11.70
2023-07-18T02:30:17.666Z,12.10
2023-07-18T02:32:46.661Z,11.80
2023-07-18T02:35:18.837Z,11.20
2023-07-18T02:37:47.490Z,10.60
2023-07-18T02:40:18.110Z,8.20
2023-07-18T02:42:46.660Z,7.60
2023-07-18T02:45:15.015Z,7.30
2023-07-18T02:47:44.411Z,7.60
2023-07-18T02:50:13.124Z,7.90
2023-07-18T02:52:40.804Z,7.70
2023-07-18T02:55:09.981Z,8.00
2023-07-18T02:57:39.503Z,8.90
2023-07-18T03:00:21.550Z,8.80
2023-07-18T03:02:50.737Z,8.30
2023-07-18T03:05:23.132Z,7.90
2023-07-18T03:07:53.837Z,7.40
2023-07-18T03:10:25.063Z,7.10
2023-07-18T03:12:54.006Z,6.70
2023-07-18T03:15:22.390Z,7.60
2023-07-18T03:17:51.315Z,6.50
2023-07-18T03:20:20.911Z,6.30
2023-07-18T03:22:51.861Z,6.80
2023-07-18T03:25:22.661Z,6.20
2023-07-18T03:27:52.197Z,6.60
2023-07-18T03:30:20.162Z,6.90
2023-07-18T03:32:52.108Z,6.90
2023-07-18T03:37:49.667Z,6.40
2023-07-18T03:40:22.403Z,6.60
2023-07-18T03:42:51.306Z,5.90
2023-07-18T03:45:18.960Z,5.90
2023-07-18T03:47:49.005Z,6.20
2023-07-18T03:50:18.701Z,6.70
2023-07-18T03:52:48.125Z,6.10
2023-07-18T03:55:15.841Z,6.20
2023-07-18T03:57:45.273Z,6.80
2023-07-18T04:00:15.463Z,6.50
2023-07-18T04:02:47.207Z,6.60
2023-07-18T04:05:18.335Z,7.20
2023-07-18T04:07:48.109Z,7.90
2023-07-18T04:10:15.942Z,8.40
2023-07-18T04:12:44.597Z,7.70
2023-07-18T04:15:15.503Z,7.20
2023-07-18T04:17:43.775Z,8.80
2023-07-18T04:20:14.153Z,7.40
2023-07-18T04:22:43.841Z,7.20
2023-07-18T04:25:11.978Z,7.20
2023-07-18T04:27:40.247Z,6.40
2023-07-18T04:30:11.032Z,6.90
2023-07-18T04:32:44.245Z,6.10
2023-07-18T04:35:12.233Z,6.50
2023-07-18T04:37:40.773Z,5.60
2023-07-18T04:40:09.338Z,6.00
2023-07-18T04:42:38.128Z,6.90
2023-07-18T04:45:07.372Z,6.60
2023-07-18T04:47:36.909Z,6.70
2023-07-18T04:50:05.760Z,6.40
2023-07-18T04:52:33.878Z,6.80
2023-07-18T04:55:03.204Z,6.50
2023-07-18T04:57:32.519Z,6.30
2023-07-18T05:00:06.312Z,5.90
2023-07-18T05:02:34.466Z,6.00
2023-07-18T05:05:03.169Z,6.20
2023-07-18T05:07:30.664Z,6.30
2023-07-18T05:09:58.362Z,6.90
2023-07-18T05:12:26.256Z,7.90
2023-07-18T05:14:54.075Z,6.50
2023-07-18T05:17:23.339Z,6.10
2023-07-18T05:19:51.102Z,6.00
2023-07-18T05:22:21.286Z,6.00
2023-07-18T05:24:49.189Z,5.80
2023-07-18T05:27:18.322Z,6.00
2023-07-18T05:29:47.078Z,5.40
2023-07-18T05:32:16.026Z,5.80
2023-07-18T05:34:44.433Z,6.70
2023-07-18T05:37:13.558Z,6.10
2023-07-18T05:39:42.072Z,6.40
2023-07-18T05:42:10.270Z,5.80
2023-07-18T05:44:37.942Z,5.60
2023-07-18T05:47:06.732Z,5.20
2023-07-18T05:49:35.329Z,5.60
2023-07-18T05:52:03.147Z,5.60
2023-07-18T05:54:31.803Z,6.40
2023-07-18T05:57:01.002Z,6.20
2023-07-18T05:59:31.638Z,6.10
2023-07-18T06:02:00.129Z,5.20
2023-07-18T06:04:28.611Z,4.70
2023-07-18T06:06:57.742Z,5.20
2023-07-18T06:09:26.489Z,5.00
2023-07-18T06:11:54.589Z,4.40
2023-07-18T06:14:27.561Z,5.10
2023-07-18T06:16:57.887Z,5.10
2023-07-18T06:19:27.499Z,5.00
2023-07-18T06:21:55.909Z,4.30
2023-07-18T06:24:25.293Z,4.90
2023-07-18T06:26:53.297Z,4.30
2023-07-18T06:29:21.994Z,4.80
2023-07-18T06:31:50.084Z,4.60
2023-07-18T06:34:18.712Z,4.30
2023-07-18T06:36:47.564Z,4.80
2023-07-18T06:39:17.498Z,4.50
2023-07-18T06:41:46.066Z,4.60
2023-07-18T06:44:15.471Z,4.70
2023-07-18T06:46:44.311Z,4.40
2023-07-18T06:49:14.348Z,5.00
2023-07-18T06:51:42.432Z,4.70
2023-07-18T06:54:11.225Z,4.40
2023-07-18T06:56:39.944Z,4.40
2023-07-18T06:59:13.803Z,4.60
2023-07-18T07:01:43.137Z,4.80
2023-07-18T07:04:11.611Z,4.20
2023-07-18T07:06:42.895Z,5.00
2023-07-18T07:09:15.143Z,5.00
2023-07-18T07:14:12.379Z,4.30
2023-07-18T07:16:41.549Z,4.30
2023-07-18T07:19:09.851Z,4.00
2023-07-18T07:21:37.959Z,5.00
2023-07-18T07:24:07.247Z,4.30
2023-07-18T07:26:38.587Z,4.10
2023-07-18T07:31:38.252Z,4.60
2023-07-18T07:34:07.326Z,4.30
2023-07-18T07:36:36.713Z,4.20
2023-07-18T07:39:04.907Z,4.20
2023-07-18T07:41:32.472Z,4.40
2023-07-18T07:44:01.817Z,3.90
2023-07-18T07:46:30.320Z,4.50
2023-07-18T07:48:59.378Z,4.40
2023-07-18T07:51:27.550Z,4.40
2023-07-18T07:53:57.244Z,4.40
2023-07-18T07:56:25.265Z,4.00
2023-07-18T07:59:05.592Z,4.00
2023-07-18T08:01:39.746Z,3.90
2023-07-18T08:04:12.489Z,4.10
2023-07-18T08:06:41.640Z,3.90
2023-07-18T08:09:09.516Z,4.10
2023-07-18T08:11:39.350Z,3.80
2023-07-18T08:14:08.370Z,3.90
2023-07-18T08:16:38.112Z,3.70
2023-07-18T08:19:12.578Z,3.90
2023-07-18T08:21:40.087Z,3.70
2023-07-18T08:24:08.206Z,3.50
2023-07-18T08:26:36.061Z,3.70
2023-07-18T08:29:09.868Z,3.40
2023-07-18T08:31:38.388Z,3.20
2023-07-18T08:34:08.012Z,3.30
2023-07-18T08:36:36.787Z,3.30
2023-07-18T08:39:11.832Z,3.50
2023-07-18T08:41:47.181Z,3.20
2023-07-18T08:44:17.262Z,3.80
2023-07-18T08:46:47.600Z,3.30
2023-07-18T08:49:18.560Z,3.40
2023-07-18T08:51:49.186Z,3.40
2023-07-18T08:54:17.908Z,2.80
2023-07-18T08:56:45.464Z,3.40
2023-07-18T08:59:13.964Z,3.30
2023-07-18T09:01:49.748Z,3.20
2023-07-18T09:04:20.774Z,3.50
2023-07-18T09:09:21.861Z,3.20
2023-07-18T09:12:16.406Z,3.30
2023-07-18T09:14:44.363Z,3.00
2023-07-18T09:17:12.909Z,3.30
2023-07-18T09:19:50.015Z,3.00
2023-07-18T09:22:18.969Z,3.10
2023-07-18T09:24:49.309Z,3.80
2023-07-18T09:27:20.881Z,3.10
2023-07-18T09:29:50.293Z,3.00
2023-07-18T09:32:24.869Z,3.30
2023-07-18T09:34:55.493Z,3.20
2023-07-18T09:37:24.069Z,3.10
2023-07-18T09:39:53.692Z,2.80
2023-07-18T09:42:23.983Z,3.10
2023-07-18T09:47:23.444Z,3.10
2023-07-18T09:49:52.090Z,3.80
2023-07-18T09:52:26.644Z,3.00
2023-07-18T09:54:58.391Z,2.70
2023-07-18T09:57:27.190Z,3.20
2023-07-18T09:59:58.926Z,3.00
2023-07-18T10:02:27.879Z,3.00
2023-07-18T10:04:56.998Z,3.10
2023-07-18T10:07:26.347Z,2.90
2023-07-18T10:09:55.398Z,2.90
2023-07-18T10:12:24.274Z,2.90
2023-07-18T10:14:58.256Z,3.10
2023-07-18T10:17:32.514Z,2.80
2023-07-18T10:20:20.922Z,2.90
2023-07-18T10:22:55.635Z,2.90
2023-07-18T10:25:30.428Z,2.70
2023-07-18T10:28:01.066Z,2.90
2023-07-18T10:30:42.569Z,2.70
2023-07-18T10:33:10.751Z,2.90
2023-07-18T10:35:46.318Z,3.30
2023-07-18T10:38:15.215Z,3.10
2023-07-18T10:40:45.719Z,3.10
2023-07-18T10:43:18.986Z,2.90
2023-07-18T10:45:47.315Z,3.40
2023-07-18T10:48:21.329Z,2.80
2023-07-18T10:50:49.617Z,2.80
2023-07-18T10:53:20.495Z,3.20
2023-07-18T10:55:49.827Z,3.10
2023-07-18T10:58:21.387Z,2.90
2023-07-18T11:00:50.964Z,3.40
2023-07-18T11:03:28.169Z,3.30
2023-07-18T11:05:56.349Z,3.00
2023-07-18T11:08:27.009Z,2.70
2023-07-18T11:11:05.231Z,2.90
2023-07-18T11:13:38.154Z,2.90
2023-07-18T11:16:17.415Z,3.40
2023-07-18T11:18:46.969Z,2.80
2023-07-18T11:21:19.781Z,3.10
2023-07-18T11:23:48.900Z,3.20
2023-07-18T11:26:19.969Z,2.90
2023-07-18T11:34:02.861Z,3.00
2023-07-18T11:36:33.871Z,3.20
2023-07-18T11:39:02.266Z,3.20
2023-07-18T11:41:33.378Z,3.00
2023-07-18T11:44:07.064Z,2.90
2023-07-18T11:46:48.043Z,2.90
2023-07-18T11:49:17.199Z,3.10
2023-07-18T11:51:44.784Z,3.20
2023-07-18T11:54:13.812Z,3.00
2023-07-18T11:56:41.833Z,3.10
2023-07-18T11:59:10.058Z,2.90
2023-07-18T12:01:39.009Z,3.10
2023-07-18T12:04:13.409Z,3.00
2023-07-18T12:06:41.992Z,3.20
2023-07-18T12:09:10.235Z,3.30
2023-07-18T12:11:39.668Z,3.20
2023-07-18T12:14:09.907Z,3.10
2023-07-18T12:16:39.691Z,2.80
2023-07-18T12:19:07.269Z,3.60
2023-07-18T12:21:37.403Z,2.80
2023-07-18T12:24:05.394Z,3.30
2023-07-18T12:26:33.568Z,3.20
2023-07-18T12:29:01.528Z,3.50
2023-07-18T12:31:33.972Z,3.30
2023-07-18T12:34:03.551Z,3.30
2023-07-18T12:36:31.174Z,2.80
2023-07-18T12:38:59.794Z,3.10
2023-07-18T12:41:28.697Z,3.10
2023-07-18T12:43:56.774Z,3.40
2023-07-18T12:46:27.744Z,3.00
2023-07-18T12:49:03.721Z,2.90
2023-07-18T12:51:32.160Z,3.30
2023-07-18T12:54:01.580Z,3.20
2023-07-18T12:56:34.505Z,3.30
2023-07-18T12:59:03.045Z,3.50
2023-07-18T13:01:31.244Z,3.00
2023-07-18T13:04:00.424Z,3.00
2023-07-18T13:06:28.907Z,3.10
2023-07-18T13:08:57.586Z,3.30
2023-07-18T13:11:25.548Z,3.40
2023-07-18T13:13:53.781Z,3.50
2023-07-18T13:16:22.050Z,3.60
2023-07-18T13:18:51.196Z,2.90
2023-07-18T13:21:19.280Z,3.50
2023-07-18T13:23:47.115Z,2.80
2023-07-18T13:26:19.570Z,3.80
2023-07-18T13:28:48.765Z,3.10
2023-07-18T13:31:17.452Z,3.10
2023-07-18T13:33:46.225Z,3.00
2023-07-18T13:36:15.233Z,3.50
2023-07-18T13:38:43.091Z,3.20
2023-07-18T13:41:11.964Z,3.30
2023-07-18T13:43:40.510Z,3.70
2023-07-18T13:46:09.088Z,3.20
2023-07-18T13:48:38.900Z,3.20
2023-07-18T13:51:06.661Z,3.20
2023-07-18T13:53:35.121Z,3.40
2023-07-18T13:56:03.665Z,3.60
2023-07-18T13:58:32.072Z,3.70
2023-07-18T14:01:00.320Z,3.30
2023-07-18T14:03:34.259Z,3.30
2023-07-18T14:06:04.854Z,3.80
2023-07-18T14:08:33.889Z,3.70
2023-07-18T14:11:03.455Z,3.90
2023-07-18T14:13:32.128Z,3.40
2023-07-18T14:16:00.174Z,3.40
2023-07-18T14:18:28.627Z,3.50
2023-07-18T14:20:57.076Z,3.30
2023-07-18T14:23:25.280Z,3.50
2023-07-18T14:25:53.594Z,3.00
2023-07-18T14:28:21.835Z,3.30
2023-07-18T14:30:49.892Z,3.20
2023-07-18T14:33:19.235Z,3.40
2023-07-18T14:35:47.193Z,3.60
2023-07-18T14:38:15.523Z,3.50
2023-07-18T14:40:44.122Z,3.60
2023-07-18T14:43:12.557Z,3.60
2023-07-18T14:45:40.891Z,3.50
2023-07-18T14:48:09.468Z,3.50
2023-07-18T14:50:38.608Z,3.60
2023-07-18T14:53:08.180Z,3.80
2023-07-18T14:55:36.995Z,3.40
2023-07-18T14:58:04.936Z,3.80
2023-07-18T15:00:33.862Z,3.30
2023-07-18T15:03:02.612Z,3.40
2023-07-18T15:05:31.456Z,3.80
2023-07-18T15:07:59.784Z,3.60
2023-07-18T15:10:27.704Z,3.90
2023-07-18T15:12:56.174Z,3.80
2023-07-18T15:15:23.744Z,3.60
2023-07-18T15:17:52.205Z,3.60
2023-07-18T15:20:20.393Z,3.50
2023-07-18T15:22:52.428Z,3.50
2023-07-18T15:25:20.231Z,3.30
2023-07-18T15:27:48.724Z,3.50
2023-07-18T15:30:16.820Z,3.00
2023-07-18T15:32:47.315Z,4.00
2023-07-18T15:37:43.355Z,3.50
2023-07-18T15:40:12.836Z,3.70
2023-07-18T15:42:42.121Z,3.70
2023-07-18T15:45:10.666Z,4.30
2023-07-18T15:47:39.092Z,3.70
2023-07-18T15:50:10.528Z,3.70
2023-07-18T15:52:38.349Z,3.50
2023-07-18T15:55:06.837Z,3.40
2023-07-18T15:57:34.615Z,3.70
2023-07-18T16:00:04.271Z,3.50
2023-07-18T16:02:36.275Z,3.80
2023-07-18T16:05:08.674Z,3.80
2023-07-18T16:10:05.135Z,3.50
2023-07-18T16:12:33.263Z,3.50
2023-07-18T16:15:01.070Z,3.60
2023-07-18T16:17:30.032Z,4.30
2023-07-18T16:19:58.306Z,3.80
2023-07-18T16:22:26.182Z,3.80
2023-07-18T16:24:54.196Z,3.80
2023-07-18T16:27:22.018Z,3.70
2023-07-18T16:29:50.204Z,4.00
2023-07-18T16:32:17.994Z,3.90
2023-07-18T16:34:46.865Z,3.60
2023-07-18T16:37:14.583Z,3.90
2023-07-18T16:39:42.815Z,3.50
2023-07-18T16:42:23.451Z,3.80
2023-07-18T16:44:53.780Z,3.50
2023-07-18T16:47:22.765Z,3.80
2023-07-18T16:49:51.660Z,3.80
2023-07-18T16:52:20.766Z,4.00
2023-07-18T16:54:48.675Z,3.80
2023-07-18T16:57:17.432Z,4.20
2023-07-18T16:59:45.061Z,4.40
2023-07-18T17:02:13.190Z,4.50
2023-07-18T17:04:41.053Z,3.80
2023-07-18T17:07:08.575Z,4.10
2023-07-18T17:09:36.911Z,4.70
2023-07-18T17:12:06.026Z,5.10
2023-07-18T17:14:34.053Z,7.60
2023-07-18T17:17:01.936Z,4.90
2023-07-18T17:19:29.833Z,5.20
2023-07-18T17:21:58.290Z,5.60
2023-07-18T17:24:26.810Z,5.70
2023-07-18T17:26:55.222Z,6.30
2023-07-18T17:29:23.232Z,5.90
2023-07-18T17:31:51.476Z,5.50
2023-07-18T17:34:19.202Z,4.40
2023-07-18T17:36:53.319Z,4.80
2023-07-18T17:39:24.508Z,4.90
2023-07-18T17:41:52.369Z,4.70
2023-07-18T17:44:20.797Z,4.50
2023-07-18T17:46:49.423Z,4.30
2023-07-18T17:49:17.274Z,4.20
2023-07-18T17:51:45.263Z,4.20
2023-07-18T17:54:13.381Z,4.80
2023-07-18T17:56:41.347Z,4.30
2023-07-18T17:59:09.315Z,4.20
2023-07-18T18:01:37.840Z,4.40
2023-07-18T18:04:07.581Z,4.00
2023-07-18T18:06:35.578Z,4.60
2023-07-18T18:09:06.152Z,5.40
2023-07-18T18:11:35.804Z,5.00
2023-07-18T18:14:04.144Z,4.90
2023-07-18T18:16:32.661Z,5.40
2023-07-18T18:19:00.559Z,6.50
2023-07-18T18:21:28.000Z,6.10
2023-07-18T18:23:55.984Z,7.80
2023-07-18T18:26:24.234Z,7.60
2023-07-18T18:28:53.848Z,6.50
2023-07-18T18:31:21.816Z,6.10
2023-07-18T18:33:50.004Z,6.50
2023-07-18T18:36:25.022Z,6.10
2023-07-18T18:38:52.944Z,6.50
2023-07-18T18:41:21.383Z,6.30
2023-07-18T18:43:50.253Z,5.80
2023-07-18T18:46:18.054Z,6.10
2023-07-18T18:48:46.049Z,6.50
2023-07-18T18:51:14.507Z,7.10
2023-07-18T18:53:42.846Z,7.40
2023-07-18T18:56:12.282Z,6.80
2023-07-18T18:58:40.676Z,6.90
2023-07-18T19:01:08.618Z,5.90
2023-07-18T19:03:36.504Z,5.80
2023-07-18T19:06:04.292Z,5.90
2023-07-18T19:08:32.229Z,6.00
2023-07-18T19:11:22.160Z,5.90
2023-07-18T19:13:50.727Z,7.40
2023-07-18T19:16:32.862Z,6.60
2023-07-18T19:19:08.721Z,9.50
2023-07-18T19:21:36.687Z,6.30
2023-07-18T19:24:05.057Z,5.90
2023-07-18T19:26:33.424Z,7.00
2023-07-18T19:29:02.594Z,5.40
2023-07-18T19:31:30.120Z,5.70
2023-07-18T19:33:58.075Z,5.40
2023-07-18T19:36:26.568Z,6.00
2023-07-18T19:38:55.615Z,5.60
2023-07-18T19:41:25.229Z,6.40
2023-07-18T19:43:52.966Z,5.90
2023-07-18T19:46:23.812Z,5.90
2023-07-18T19:48:51.831Z,5.70
2023-07-18T19:51:20.028Z,6.10
2023-07-18T19:53:48.247Z,5.90
2023-07-18T19:56:17.288Z,6.10
2023-07-18T19:58:45.975Z,6.50
2023-07-18T20:01:15.739Z,6.30
2023-07-18T20:03:57.897Z,6.30
2023-07-18T20:06:28.745Z,6.00
2023-07-18T20:08:57.313Z,6.20
2023-07-18T20:11:25.155Z,5.70
2023-07-18T20:13:53.574Z,5.70
2023-07-18T20:16:22.987Z,5.50
2023-07-18T20:18:55.482Z,5.50
2023-07-18T20:21:27.407Z,5.70
2023-07-18T20:23:56.623Z,5.40
2023-07-18T20:26:26.347Z,5.40
2023-07-18T20:28:54.421Z,5.30
2023-07-18T20:31:22.700Z,5.30
2023-07-18T20:33:50.801Z,5.10
2023-07-18T20:36:19.015Z,5.30
2023-07-18T20:38:48.039Z,5.40
2023-07-18T20:41:16.289Z,5.30
2023-07-18T20:43:48.495Z,5.50
2023-07-18T20:46:17.577Z,4.70
2023-07-18T20:48:45.507Z,4.70
2023-07-18T20:51:13.312Z,4.90
2023-07-18T20:53:41.262Z,4.60
2023-07-18T20:56:09.144Z,4.70
2023-07-18T20:58:37.446Z,4.70
2023-07-18T21:01:05.202Z,5.80
2023-07-18T21:03:34.112Z,3.90
2023-07-18T21:06:03.468Z,4.50
2023-07-18T21:08:31.730Z,5.20
2023-07-18T21:11:00.157Z,5.70
2023-07-18T21:13:28.060Z,5.40
2023-07-18T21:15:56.119Z,5.10
